Time;durP1;ratioP1;P1;durP2;ratioP2;P2;SDS_P1;SDS_P2;PMS_P1;PMS_P2;Temp;Humidity;BMP_temperature;BMP_pressure;BME280_temperature;BME280_humidity;BME280_pressure;Samples;Min_cycle;Max_cycle;Signal;HPM_P1;HPM_P2
2022/03/08 00:00:35;;;;;;;31.10;17.60;;;;;;;-0.92;77.70;97008.34;107567;1273;46538;-74
2022/03/08 00:03:14;;;;;;;22.20;13.00;;;;;;;-0.93;78.13;97009.09;107542;1273;56389;-74
2022/03/08 00:05:45;;;;;;;32.40;17.80;;;;;;;-0.92;78.13;97003.58;107506;1273;49105;-74
2022/03/08 00:08:16;;;;;;;24.10;14.30;;;;;;;-0.91;78.49;97005.37;107665;1274;31411;-74
2022/03/08 00:10:48;;;;;;;25.60;15.60;;;;;;;-0.91;78.38;97005.90;107591;1273;68610;-73
2022/03/08 00:13:18;;;;;;;28.30;15.80;;;;;;;-0.89;78.51;97008.82;107600;1273;27562;-74
2022/03/08 00:15:50;;;;;;;34.90;21.10;;;;;;;-0.89;78.51;97012.06;107587;1274;43378;-74
2022/03/08 00:18:21;;;;;;;29.70;15.20;;;;;;;-0.89;78.51;97008.85;107617;1273;28007;-74
2022/03/08 00:20:52;;;;;;;44.90;23.70;;;;;;;-0.92;78.64;97006.17;107528;1273;48001;-74
2022/03/08 00:23:23;;;;;;;36.30;21.00;;;;;;;-0.93;78.73;97005.33;107548;1273;42561;-74
2022/03/08 00:25:55;;;;;;;34.00;20.90;;;;;;;-0.94;78.68;97011.86;107565;1273;44574;-74
2022/03/08 00:28:26;;;;;;;30.00;14.50;;;;;;;-0.95;78.89;97010.73;107582;1273;39493;-74
2022/03/08 00:30:58;;;;;;;36.70;23.20;;;;;;;-0.96;78.97;97005.64;107541;1273;40174;-74
2022/03/08 00:33:29;;;;;;;40.20;21.90;;;;;;;-0.96;79.15;97015.30;107587;1273;33450;-74
2022/03/08 00:36:00;;;;;;;40.80;23.80;;;;;;;-0.97;79.27;97016.54;107596;1273;38173;-74
2022/03/08 00:38:31;;;;;;;36.80;21.90;;;;;;;-0.97;79.26;97019.70;107554;1273;41428;-74
2022/03/08 00:41:03;;;;;;;33.40;22.10;;;;;;;-0.97;79.43;97018.09;107555;1273;54259;-74
2022/03/08 00:43:34;;;;;;;36.40;23.60;;;;;;;-0.97;79.37;97021.89;107532;1273;46541;-74
2022/03/08 00:46:05;;;;;;;37.80;21.50;;;;;;;-0.96;79.38;97025.35;107569;1273;31021;-73
2022/03/08 00:48:36;;;;;;;40.40;25.60;;;;;;;-0.97;79.29;97026.42;107552;1274;46211;-74
2022/03/08 00:51:07;;;;;;;38.00;22.20;;;;;;;-0.97;79.47;97025.30;107560;1273;34389;-73
2022/03/08 00:53:38;;;;;;;45.50;24.20;;;;;;;-0.98;79.58;97022.46;107589;1273;28946;-73
2022/03/08 00:56:09;;;;;;;37.20;23.80;;;;;;;-0.98;79.66;97019.52;107544;1273;41522;-74
2022/03/08 00:58:41;;;;;;;24.30;16.30;;;;;;;-0.99;79.55;97021.34;107525;1273;40358;-74
2022/03/08 01:01:12;;;;;;;42.40;25.90;;;;;;;-1.01;79.86;97024.30;107561;1273;45011;-74
2022/03/08 01:03:43;;;;;;;41.80;26.00;;;;;;;-1.02;79.72;97024.86;107576;1273;31538;-74
2022/03/08 01:06:13;;;;;;;35.40;22.20;;;;;;;-1.03;79.72;97028.23;107552;1273;46940;-74
2022/03/08 01:08:45;;;;;;;40.90;25.70;;;;;;;-1.04;80.13;97023.34;107588;1273;29555;-74
2022/03/08 01:11:16;;;;;;;34.20;18.70;;;;;;;-1.05;80.17;97025.25;107632;1273;30676;-74
2022/03/08 01:13:47;;;;;;;32.10;20.80;;;;;;;-1.07;80.19;97026.94;107613;1274;37070;-74
2022/03/08 01:16:18;;;;;;;40.70;25.30;;;;;;;-1.09;80.37;97028.49;107648;1274;35845;-74
2022/03/08 01:18:49;;;;;;;33.70;22.70;;;;;;;-1.10;80.73;97027.81;107626;1273;42802;-73
2022/03/08 01:21:20;;;;;;;38.20;25.70;;;;;;;-1.12;80.57;97028.95;107568;1273;63949;-74
2022/03/08 01:23:50;;;;;;;46.50;29.00;;;;;;;-1.14;80.60;97027.73;107657;1273;42731;-74
2022/03/08 01:26:21;;;;;;;48.00;26.70;;;;;;;-1.15;80.53;97024.61;107606;1273;37930;-74
2022/03/08 01:28:52;;;;;;;40.90;26.50;;;;;;;-1.16;80.69;97025.45;107559;1273;32690;-74
2022/03/08 01:31:24;;;;;;;38.10;23.90;;;;;;;-1.17;80.81;97022.33;107584;1273;41632;-74
2022/03/08 01:33:55;;;;;;;33.10;19.10;;;;;;;-1.20;80.96;97017.20;107573;1273;31075;-74
2022/03/08 01:36:27;;;;;;;40.10;26.80;;;;;;;-1.21;81.12;97022.00;107602;1273;30536;-74
2022/03/08 01:38:58;;;;;;;44.60;29.20;;;;;;;-1.21;81.11;97021.91;107601;1273;30187;-74
2022/03/08 01:41:29;;;;;;;42.20;27.10;;;;;;;-1.22;80.94;97024.39;107546;1273;43116;-74
2022/03/08 01:44:00;;;;;;;41.80;26.50;;;;;;;-1.23;81.13;97026.11;107621;1273;39443;-74
2022/03/08 01:46:31;;;;;;;44.10;28.40;;;;;;;-1.24;81.23;97023.43;107581;1274;38706;-74
2022/03/08 01:49:02;;;;;;;38.60;25.60;;;;;;;-1.24;81.06;97023.50;107474;1273;58218;-74
2022/03/08 01:51:33;;;;;;;46.50;28.70;;;;;;;-1.25;81.40;97016.14;107588;1272;41625;-74
2022/03/08 01:54:04;;;;;;;36.30;23.50;;;;;;;-1.26;81.62;97018.34;107601;1273;38740;-74
2022/03/08 01:56:35;;;;;;;42.00;25.90;;;;;;;-1.27;81.43;97016.69;107581;1273;43893;-74
2022/03/08 01:59:06;;;;;;;44.80;29.70;;;;;;;-1.28;81.87;97008.07;107602;1273;38048;-73
2022/03/08 02:01:38;;;;;;;46.30;30.90;;;;;;;-1.29;81.66;97007.66;107542;1273;36967;-74
2022/03/08 02:04:09;;;;;;;41.90;26.20;;;;;;;-1.30;81.47;97006.49;107565;1273;41413;-74
2022/03/08 02:06:40;;;;;;;44.60;29.80;;;;;;;-1.30;81.90;97004.41;107463;1273;165711;-74
2022/03/08 02:09:11;;;;;;;53.50;31.70;;;;;;;-1.30;81.91;97002.89;107610;1273;37607;-74
2022/03/08 02:11:43;;;;;;;49.50;31.50;;;;;;;-1.29;81.82;97003.53;107608;1273;40481;-74
2022/03/08 02:14:14;;;;;;;48.40;30.40;;;;;;;-1.29;81.85;97001.34;107649;1273;32027;-73
2022/03/08 02:16:47;;;;;;;50.70;30.50;;;;;;;-1.30;81.88;96998.90;107599;1273;31156;-74
2022/03/08 02:19:18;;;;;;;43.50;29.20;;;;;;;-1.31;81.58;97000.54;107593;1273;41850;-74
2022/03/08 02:21:53;;;;;;;49.20;31.60;;;;;;;-1.29;82.01;97004.02;107643;1273;41613;-74
2022/03/08 02:24:24;;;;;;;48.50;30.50;;;;;;;-1.29;82.07;97003.62;107579;1273;42785;-74
2022/03/08 02:26:55;;;;;;;44.30;28.00;;;;;;;-1.28;81.87;97006.86;107581;1273;40918;-74
2022/03/08 02:29:27;;;;;;;35.90;23.60;;;;;;;-1.29;81.91;97007.98;107592;1273;42239;-74
2022/03/08 02:31:58;;;;;;;43.20;27.30;;;;;;;-1.29;81.83;97008.83;107552;1273;44106;-74
2022/03/08 02:34:29;;;;;;;31.90;23.30;;;;;;;-1.30;81.85;97004.62;107592;1273;40874;-73
2022/03/08 02:37:07;;;;;;;40.80;25.40;;;;;;;-1.30;81.98;97005.09;107593;1273;40444;-74
2022/03/08 02:39:39;;;;;;;39.60;26.50;;;;;;;-1.29;81.84;96999.78;107692;1273;36149;-74
2022/03/08 02:42:10;;;;;;;35.30;23.80;;;;;;;-1.28;81.94;96997.23;107615;1272;32248;-74
2022/03/08 02:44:41;;;;;;;38.20;25.50;;;;;;;-1.29;81.91;96996.86;107627;1273;28404;-74
2022/03/08 02:47:12;;;;;;;38.90;25.60;;;;;;;-1.29;81.75;96997.17;107606;1272;34043;-73
2022/03/08 02:49:43;;;;;;;39.40;26.00;;;;;;;-1.30;81.69;96995.21;107559;1273;44604;-73
2022/03/08 02:52:14;;;;;;;37.60;25.90;;;;;;;-1.30;81.75;96995.77;107612;1272;38761;-74
2022/03/08 02:54:45;;;;;;;41.10;25.90;;;;;;;-1.30;81.90;96994.21;107563;1273;40651;-74
2022/03/08 02:57:16;;;;;;;32.20;24.00;;;;;;;-1.29;81.86;96997.90;107565;1273;43256;-73
2022/03/08 02:59:46;;;;;;;31.70;22.60;;;;;;;-1.28;81.83;96998.30;107605;1273;33307;-73
2022/03/08 03:02:17;;;;;;;35.50;22.20;;;;;;;-1.27;81.71;97005.45;107648;1273;44026;-74
2022/03/08 03:04:48;;;;;;;35.50;22.30;;;;;;;-1.27;81.85;97004.38;107581;1272;40236;-73
2022/03/08 03:07:23;;;;;;;27.80;19.10;;;;;;;-1.26;81.47;97004.69;107622;1273;32341;-74
2022/03/08 03:09:54;;;;;;;32.80;20.80;;;;;;;-1.26;81.54;97003.49;107617;1272;41588;-74
2022/03/08 03:12:25;;;;;;;28.50;20.00;;;;;;;-1.26;81.67;97003.33;107558;1273;42104;-74
2022/03/08 03:14:56;;;;;;;29.20;19.90;;;;;;;-1.27;81.72;97006.16;107552;1273;43624;-73
2022/03/08 03:17:27;;;;;;;29.50;20.10;;;;;;;-1.26;81.51;97013.70;107556;1273;46888;-74
2022/03/08 03:19:57;;;;;;;32.10;20.00;;;;;;;-1.26;81.74;97014.09;107591;1273;42799;-74
2022/03/08 03:22:28;;;;;;;35.20;23.30;;;;;;;-1.28;81.55;97019.76;107590;1273;43517;-74
2022/03/08 03:24:59;;;;;;;42.60;25.50;;;;;;;-1.30;81.75;97018.83;107558;1272;44059;-74
2022/03/08 03:27:30;;;;;;;36.90;24.80;;;;;;;-1.32;81.86;97023.30;107521;1273;58206;-74
2022/03/08 03:30:01;;;;;;;37.90;24.60;;;;;;;-1.32;81.73;97023.73;107617;1273;34180;-74
2022/03/08 03:32:33;;;;;;;32.00;21.60;;;;;;;-1.32;81.77;97027.55;107579;1273;44702;-73
2022/03/08 03:35:04;;;;;;;40.80;26.10;;;;;;;-1.33;82.15;97026.73;107553;1273;42819;-73
2022/03/08 03:37:35;;;;;;;35.60;24.90;;;;;;;-1.36;81.87;97030.53;107633;1273;33285;-74
2022/03/08 03:40:09;;;;;;;35.30;23.50;;;;;;;-1.36;81.95;97033.84;107596;1273;30482;-74
2022/03/08 03:42:40;;;;;;;41.40;25.00;;;;;;;-1.36;81.99;97035.93;107701;1273;32863;-74
2022/03/08 03:45:13;;;;;;;41.50;25.40;;;;;;;-1.36;82.09;97036.97;107558;1275;42216;-74
2022/03/08 03:47:44;;;;;;;35.60;23.70;;;;;;;-1.36;82.09;97035.77;107595;1273;47161;-73
2022/03/08 03:50:15;;;;;;;39.20;24.50;;;;;;;-1.37;82.14;97033.45;107564;1273;68810;-73
2022/03/08 03:52:46;;;;;;;40.20;25.10;;;;;;;-1.36;82.14;97034.01;107575;1273;39139;-73
2022/03/08 03:55:17;;;;;;;42.20;25.30;;;;;;;-1.37;82.14;97034.01;107614;1273;32868;-73
2022/03/08 03:57:48;;;;;;;41.40;26.40;;;;;;;-1.38;81.98;97034.48;107638;1274;47906;-74
2022/03/08 04:00:19;;;;;;;39.90;25.60;;;;;;;-1.37;82.20;97035.41;107606;1273;43180;-73
2022/03/08 04:02:50;;;;;;;40.00;24.80;;;;;;;-1.36;82.22;97033.29;107612;1273;31896;-74
2022/03/08 04:05:21;;;;;;;36.80;25.20;;;;;;;-1.37;82.25;97034.97;107528;1274;31169;-74
2022/03/08 04:07:52;;;;;;;36.80;22.70;;;;;;;-1.41;82.33;97032.54;107417;1274;47795;-74
2022/03/08 04:10:23;;;;;;;37.80;25.80;;;;;;;-1.46;82.49;97032.83;107495;1274;42982;-74
2022/03/08 04:12:54;;;;;;;40.40;26.20;;;;;;;-1.50;82.73;97036.14;107530;1273;52869;-74
2022/03/08 04:15:26;;;;;;;37.20;22.90;;;;;;;-1.52;82.75;97035.69;107590;1273;31050;-74
2022/03/08 04:17:57;;;;;;;39.90;25.70;;;;;;;-1.52;82.86;97036.16;107593;1273;33561;-74
2022/03/08 04:20:28;;;;;;;38.60;24.90;;;;;;;-1.53;82.82;97043.23;107437;1274;42241;-74
2022/03/08 04:22:59;;;;;;;39.80;25.40;;;;;;;-1.52;82.75;97043.01;107568;1273;39976;-74
2022/03/08 04:25:30;;;;;;;37.00;23.80;;;;;;;-1.51;82.82;97048.41;107593;1275;30218;-74
2022/03/08 04:28:02;;;;;;;37.40;23.80;;;;;;;-1.49;82.75;97048.98;107600;1273;32510;-74
2022/03/08 04:30:33;;;;;;;39.40;24.30;;;;;;;-1.48;82.51;97051.02;107594;1273;43041;-74
2022/03/08 04:33:04;;;;;;;37.80;22.80;;;;;;;-1.46;82.60;97061.42;107548;1273;33771;-74
2022/03/08 04:35:35;;;;;;;37.50;25.10;;;;;;;-1.45;82.91;97054.95;107579;1273;31421;-74
2022/03/08 04:38:06;;;;;;;35.00;22.60;;;;;;;-1.49;82.90;97062.89;107569;1273;34626;-73
2022/03/08 04:40:37;;;;;;;33.60;23.00;;;;;;;-1.50;82.97;97062.98;107598;1273;43169;-74
2022/03/08 04:43:08;;;;;;;34.40;23.50;;;;;;;-1.51;82.81;97063.13;107602;1273;40208;-73
2022/03/08 04:45:39;;;;;;;38.50;22.10;;;;;;;-1.54;82.85;97064.52;107635;1273;30677;-74
2022/03/08 04:48:10;;;;;;;37.40;20.50;;;;;;;-1.58;83.01;97065.35;107596;1273;40649;-74
2022/03/08 04:50:41;;;;;;;41.70;27.50;;;;;;;-1.62;83.50;97068.80;107564;1273;33595;-74
2022/03/08 04:53:13;;;;;;;43.00;27.70;;;;;;;-1.69;83.28;97068.03;107552;1273;32265;-74
2022/03/08 04:55:43;;;;;;;38.30;25.20;;;;;;;-1.72;83.41;97072.88;107515;1274;112851;-74
2022/03/08 04:58:14;;;;;;;40.20;21.80;;;;;;;-1.75;83.56;97075.59;107596;1273;41726;-74
2022/03/08 05:00:45;;;;;;;31.50;18.90;;;;;;;-1.77;83.66;97076.73;107571;1273;45455;-74
2022/03/08 05:03:16;;;;;;;46.60;30.40;;;;;;;-1.81;84.25;97073.96;107569;1273;45346;-74
2022/03/08 05:05:47;;;;;;;47.40;31.10;;;;;;;-1.87;84.20;97072.34;107614;1273;44086;-74
2022/03/08 05:08:18;;;;;;;46.60;30.10;;;;;;;-1.89;84.33;97072.80;107601;1273;32385;-74
2022/03/08 05:10:50;;;;;;;48.90;29.80;;;;;;;-1.91;84.38;97078.91;107693;1273;31526;-74
2022/03/08 05:13:22;;;;;;;41.70;28.10;;;;;;;-1.94;84.37;97080.38;107640;1273;33459;-74
2022/03/08 05:15:53;;;;;;;48.50;30.50;;;;;;;-1.95;84.41;97081.08;107594;1273;34290;-74
2022/03/08 05:18:24;;;;;;;48.00;29.90;;;;;;;-1.96;84.39;97085.67;107554;1273;38287;-74
2022/03/08 05:20:55;;;;;;;42.90;26.40;;;;;;;-1.99;84.49;97082.67;107547;1273;42998;-74
2022/03/08 05:23:26;;;;;;;44.60;26.70;;;;;;;-2.01;85.00;97083.53;107547;1273;42443;-74
2022/03/08 05:25:57;;;;;;;48.00;30.40;;;;;;;-2.05;85.03;97083.90;107583;1272;40952;-74
2022/03/08 05:28:28;;;;;;;52.50;30.90;;;;;;;-2.06;85.23;97089.73;107611;1273;38779;-74
2022/03/08 05:30:58;;;;;;;41.70;28.70;;;;;;;-2.09;85.42;97089.84;107597;1273;30650;-74
2022/03/08 05:33:30;;;;;;;46.60;27.90;;;;;;;-2.09;85.53;97097.11;107590;1273;40386;-74
2022/03/08 05:36:00;;;;;;;38.30;24.30;;;;;;;-2.09;85.45;97102.30;107567;1273;40808;-74
2022/03/08 05:38:32;;;;;;;48.40;31.90;;;;;;;-2.09;85.58;97102.34;107597;1273;40664;-74
2022/03/08 05:41:02;;;;;;;43.30;29.10;;;;;;;-2.11;85.61;97103.45;107537;1273;45602;-74
2022/03/08 05:43:34;;;;;;;42.70;29.60;;;;;;;-2.09;85.58;97109.61;107517;1275;50238;-74
2022/03/08 05:46:05;;;;;;;47.70;29.60;;;;;;;-2.10;85.85;97109.73;107528;1273;61065;-74
2022/03/08 05:48:36;;;;;;;46.20;30.70;;;;;;;-2.12;85.83;97113.70;107417;1274;45467;-74
2022/03/08 05:51:07;;;;;;;47.40;30.30;;;;;;;-2.12;85.87;97118.41;107428;1274;44964;-74
2022/03/08 05:53:38;;;;;;;46.50;29.90;;;;;;;-2.13;85.86;97119.07;107462;1274;39887;-73
2022/03/08 05:56:10;;;;;;;31.10;16.10;;;;;;;-2.14;85.97;97121.46;107574;1273;41802;-74
2022/03/08 05:58:42;;;;;;;51.80;33.00;;;;;;;-2.14;86.28;97117.59;107601;1274;42945;-74
2022/03/08 06:01:13;;;;;;;29.10;17.70;;;;;;;-2.15;86.16;97123.92;107527;1275;37373;-74
2022/03/08 06:03:44;;;;;;;47.20;30.20;;;;;;;-2.15;86.32;97118.58;107543;1274;44781;-74
2022/03/08 06:06:15;;;;;;;33.20;21.60;;;;;;;-2.15;86.24;97119.77;107572;1273;40443;-74
2022/03/08 06:08:49;;;;;;;43.40;27.30;;;;;;;-2.14;86.39;97120.02;107408;1275;42456;-74
2022/03/08 06:11:20;;;;;;;41.70;27.90;;;;;;;-2.15;86.60;97116.93;107593;1273;42624;-73
2022/03/08 06:13:52;;;;;;;49.20;29.80;;;;;;;-2.17;86.80;97114.89;107698;1273;32032;-73
2022/03/08 06:16:23;;;;;;;46.30;28.80;;;;;;;-2.18;86.93;97115.59;107602;1273;39572;-74
2022/03/08 06:18:56;;;;;;;50.50;28.40;;;;;;;-2.18;87.14;97119.55;107662;1273;29207;-74
2022/03/08 06:21:27;;;;;;;44.40;27.20;;;;;;;-2.20;87.21;97120.41;107555;1274;38420;-74
2022/03/08 06:23:58;;;;;;;46.80;31.30;;;;;;;-2.20;87.24;97119.21;107600;1273;43877;-74
2022/03/08 06:26:29;;;;;;;49.60;31.90;;;;;;;-2.19;87.36;97125.94;107549;1274;32008;-74
2022/03/08 06:29:00;;;;;;;38.40;23.90;;;;;;;-2.19;87.60;97121.66;107594;1273;43689;-74
2022/03/08 06:31:31;;;;;;;53.20;32.70;;;;;;;-2.20;87.45;97122.02;107495;1273;35276;-74
2022/03/08 06:34:02;;;;;;;50.10;32.30;;;;;;;-2.21;87.65;97122.28;107475;1274;35023;-74
2022/03/08 06:36:34;;;;;;;48.10;33.80;;;;;;;-2.20;87.59;97122.05;107539;1274;34858;-74
2022/03/08 06:39:04;;;;;;;53.70;33.60;;;;;;;-2.20;87.63;97127.40;107627;1273;36672;-74
2022/03/08 06:41:36;;;;;;;51.90;32.90;;;;;;;-2.19;87.42;97124.02;107567;1273;39234;-74
2022/03/08 06:44:08;;;;;;;55.50;32.70;;;;;;;-2.20;87.50;97127.69;107562;1273;37979;-74
2022/03/08 06:46:41;;;;;;;54.50;35.40;;;;;;;-2.21;87.68;97131.63;107649;1273;43851;-74
2022/03/08 06:49:13;;;;;;;47.10;28.50;;;;;;;-2.24;87.73;97135.55;107612;1273;32205;-74
2022/03/08 06:51:44;;;;;;;44.60;27.40;;;;;;;-2.28;87.85;97143.38;107599;1273;43947;-74
2022/03/08 06:54:15;;;;;;;31.90;20.50;;;;;;;-2.30;87.97;97140.20;107589;1273;42505;-74
2022/03/08 06:56:46;;;;;;;54.20;33.20;;;;;;;-2.31;88.17;97145.38;107626;1272;34216;-74
2022/03/08 06:59:17;;;;;;;47.30;30.20;;;;;;;-2.31;88.10;97146.34;107579;1273;43239;-74
2022/03/08 07:01:48;;;;;;;46.30;30.20;;;;;;;-2.30;88.23;97149.58;107671;1272;41275;-74
2022/03/08 07:04:19;;;;;;;41.40;26.90;;;;;;;-2.31;88.39;97150.21;107659;1273;49144;-74
2022/03/08 07:06:56;;;;;;;39.60;21.90;;;;;;;-2.31;88.53;97155.89;107644;1275;33210;-74
2022/03/08 07:09:27;;;;;;;53.50;34.30;;;;;;;-2.31;88.64;97155.77;107558;1273;41324;-74
2022/03/08 07:11:58;;;;;;;53.40;35.50;;;;;;;-2.30;88.51;97163.05;107571;1274;39231;-74
2022/03/08 07:14:29;;;;;;;52.50;31.80;;;;;;;-2.26;88.48;97160.59;107602;1273;39971;-74
2022/03/08 07:17:00;;;;;;;48.10;30.10;;;;;;;-2.24;88.47;97164.89;107549;1273;62921;-74
2022/03/08 07:19:31;;;;;;;41.20;27.60;;;;;;;-2.23;88.57;97160.66;107613;1273;33413;-74
2022/03/08 07:22:02;;;;;;;49.40;34.70;;;;;;;-2.25;88.30;97161.74;107621;1273;31701;-74
2022/03/08 07:24:33;;;;;;;38.30;26.00;;;;;;;-2.22;88.40;97158.40;107583;1272;47005;-74
2022/03/08 07:27:08;;;;;;;38.00;23.40;;;;;;;-2.16;88.37;97154.96;107551;1274;43101;-73
2022/03/08 07:29:39;;;;;;;45.80;30.50;;;;;;;-2.10;88.59;97148.20;107598;1273;38070;-74
2022/03/08 07:32:10;;;;;;;35.10;21.40;;;;;;;-2.08;88.65;97147.98;107512;1273;42864;-73
2022/03/08 07:34:41;;;;;;;41.40;26.30;;;;;;;-2.08;88.61;97145.55;107576;1273;42858;-74
2022/03/08 07:37:12;;;;;;;34.50;18.00;;;;;;;-2.03;88.79;97147.11;107619;1272;38858;-73
2022/03/08 07:39:44;;;;;;;28.30;15.50;;;;;;;-1.99;88.82;97147.30;107621;1273;40294;-73
2022/03/08 07:42:15;;;;;;;36.90;24.90;;;;;;;-2.02;88.95;97151.88;107549;1274;42390;-74
2022/03/08 07:44:46;;;;;;;26.60;13.50;;;;;;;-2.00;88.96;97153.84;107602;1274;45923;-73
2022/03/08 07:47:17;;;;;;;25.20;17.90;;;;;;;-1.96;88.72;97158.02;107605;1274;45077;-74
2022/03/08 07:49:48;;;;;;;25.90;15.80;;;;;;;-1.88;88.79;97152.56;107561;1274;43714;-73
2022/03/08 07:52:19;;;;;;;32.90;17.60;;;;;;;-1.81;88.76;97154.12;107648;1274;45159;-73
2022/03/08 07:54:50;;;;;;;32.70;20.00;;;;;;;-1.69;88.67;97152.92;107645;1274;32174;-74
2022/03/08 07:57:21;;;;;;;25.60;17.70;;;;;;;-1.57;88.34;97151.70;107620;1274;39308;-74
2022/03/08 07:59:52;;;;;;;21.80;13.30;;;;;;;-1.48;87.96;97149.73;107617;1274;29915;-74
2022/03/08 08:02:23;;;;;;;25.90;16.20;;;;;;;-1.48;87.47;97145.05;107554;1274;38851;-74
2022/03/08 08:04:56;;;;;;;26.10;17.00;;;;;;;-1.49;87.41;97151.73;107416;1274;42254;-74
2022/03/08 08:07:27;;;;;;;24.30;15.10;;;;;;;-1.47;87.11;97153.07;107615;1274;40602;-74
2022/03/08 08:09:58;;;;;;;21.90;11.10;;;;;;;-1.43;86.90;97149.09;107546;1274;42540;-74
2022/03/08 08:12:29;;;;;;;19.20;12.90;;;;;;;-1.43;86.65;97149.25;107574;1272;37651;-74
2022/03/08 08:15:00;;;;;;;20.70;13.50;;;;;;;-1.40;86.67;97152.09;107563;1274;60916;-74
2022/03/08 08:17:31;;;;;;;20.10;11.20;;;;;;;-1.38;86.24;97154.55;107558;1274;39304;-74
2022/03/08 08:20:05;;;;;;;16.60;10.20;;;;;;;-1.34;86.16;97155.52;107661;1273;33354;-74
2022/03/08 08:22:36;;;;;;;14.60;10.10;;;;;;;-1.34;85.80;97151.52;107603;1274;45789;-74
2022/03/08 08:25:09;;;;;;;14.60;9.30;;;;;;;-1.28;85.58;97157.45;107594;1274;48581;-74
2022/03/08 08:27:40;;;;;;;15.60;9.20;;;;;;;-1.27;85.31;97154.29;107640;1274;40265;-73
2022/03/08 08:30:12;;;;;;;18.70;10.50;;;;;;;-1.27;85.20;97155.06;107674;1273;35069;-73
2022/03/08 08:32:44;;;;;;;17.60;10.90;;;;;;;-1.18;85.33;97156.30;107536;1274;45493;-73
2022/03/08 08:35:15;;;;;;;18.10;11.20;;;;;;;-1.03;85.48;97156.20;107568;1274;46922;-73
2022/03/08 08:37:46;;;;;;;18.20;11.90;;;;;;;-0.90;85.49;97158.67;107628;1273;33271;-74
2022/03/08 08:40:17;;;;;;;18.30;10.90;;;;;;;-0.87;85.08;97158.52;107546;1274;51066;-73
2022/03/08 08:42:47;;;;;;;21.10;12.10;;;;;;;-0.85;84.72;97159.91;107585;1273;41316;-73
2022/03/08 08:45:18;;;;;;;15.60;10.50;;;;;;;-0.84;84.40;97159.69;107660;1273;31725;-74
2022/03/08 08:47:49;;;;;;;18.80;12.40;;;;;;;-0.86;83.98;97167.23;107600;1274;42103;-73
2022/03/08 08:50:20;;;;;;;15.10;10.90;;;;;;;-0.77;84.24;97165.20;107668;1274;30046;-73
2022/03/08 08:52:53;;;;;;;19.90;13.60;;;;;;;-0.64;84.29;97162.46;107644;1274;38292;-73
2022/03/08 08:55:24;;;;;;;18.90;11.60;;;;;;;-0.50;84.09;97163.63;107580;1274;42928;-74
2022/03/08 08:57:55;;;;;;;22.20;14.60;;;;;;;-0.44;83.77;97162.86;107611;1274;39726;-74
2022/03/08 09:00:26;;;;;;;22.10;15.20;;;;;;;-0.38;83.63;97163.65;107630;1274;40991;-73
2022/03/08 09:02:58;;;;;;;22.90;16.40;;;;;;;-0.31;83.05;97163.67;107594;1274;69264;-73
2022/03/08 09:05:29;;;;;;;24.10;15.70;;;;;;;-0.37;82.33;97177.64;107614;1274;32695;-74
2022/03/08 09:08:00;;;;;;;23.40;14.80;;;;;;;-0.36;82.21;97182.93;107628;1273;29325;-74
2022/03/08 09:10:31;;;;;;;27.10;16.80;;;;;;;-0.32;82.20;97185.02;107652;1274;35305;-74
2022/03/08 09:13:01;;;;;;;27.30;17.00;;;;;;;-0.32;81.92;97187.63;107537;1274;38141;-74
2022/03/08 09:15:32;;;;;;;23.80;14.20;;;;;;;-0.34;82.09;97188.34;107602;1273;47436;-73
2022/03/08 09:18:07;;;;;;;24.90;15.90;;;;;;;-0.22;82.12;97187.63;107587;1274;38735;-73
2022/03/08 09:20:38;;;;;;;26.90;17.70;;;;;;;0.01;81.93;97179.99;107611;1272;35353;-73
2022/03/08 09:23:09;;;;;;;25.00;17.80;;;;;;;0.24;81.78;97180.92;107586;1273;40249;-73
2022/03/08 09:25:40;;;;;;;25.50;18.60;;;;;;;0.45;81.19;97173.83;107619;1272;38074;-73
2022/03/08 09:28:11;;;;;;;25.00;17.80;;;;;;;0.63;80.92;97176.98;107538;1274;42143;-73
2022/03/08 09:30:44;;;;;;;20.70;14.80;;;;;;;0.76;80.66;97175.61;107600;1274;37338;-73
2022/03/08 09:33:15;;;;;;;23.50;14.30;;;;;;;0.94;80.22;97183.86;107607;1273;35958;-73
2022/03/08 09:35:46;;;;;;;18.30;11.40;;;;;;;1.15;79.07;97185.67;107691;1272;27047;-73
2022/03/08 09:38:17;;;;;;;22.30;14.00;;;;;;;1.11;77.11;97180.41;107637;1274;33209;-73
2022/03/08 09:40:48;;;;;;;23.90;16.40;;;;;;;1.08;77.43;97183.75;107704;1274;27826;-73
2022/03/08 09:43:20;;;;;;;25.00;17.10;;;;;;;1.12;77.46;97182.66;107685;1273;31684;-73
2022/03/08 09:45:51;;;;;;;25.90;16.70;;;;;;;1.14;77.37;97187.41;107675;1273;40844;-73
2022/03/08 09:48:22;;;;;;;23.00;13.60;;;;;;;1.08;76.61;97187.41;107636;1274;39007;-73
2022/03/08 09:50:54;;;;;;;20.80;13.80;;;;;;;0.93;76.48;97194.34;107675;1272;28581;-74
2022/03/08 09:53:26;;;;;;;16.80;10.20;;;;;;;0.93;76.42;97196.84;107646;1273;38880;-73
2022/03/08 09:56:02;;;;;;;16.10;11.60;;;;;;;1.15;76.41;97200.25;107628;1273;33171;-74
2022/03/08 09:58:33;;;;;;;16.80;10.70;;;;;;;1.42;76.48;97205.83;107576;1273;31691;-73
2022/03/08 10:01:04;;;;;;;12.60;8.40;;;;;;;1.59;75.39;97204.52;107612;1273;39246;-73
2022/03/08 10:03:38;;;;;;;15.20;10.90;;;;;;;1.61;74.48;97203.84;107549;1274;42845;-73
2022/03/08 10:06:10;;;;;;;17.10;12.50;;;;;;;1.71;74.42;97201.67;107568;1273;37646;-73
2022/03/08 10:08:41;;;;;;;17.50;12.40;;;;;;;1.89;75.14;97207.86;107513;1274;40718;-74
2022/03/08 10:11:14;;;;;;;23.10;15.20;;;;;;;1.89;74.11;97202.77;107578;1274;39538;-74
2022/03/08 10:13:49;;;;;;;23.10;15.10;;;;;;;1.68;74.00;97202.48;107523;1274;31229;-73
2022/03/08 10:16:23;;;;;;;16.60;9.20;;;;;;;1.65;73.87;97205.66;107537;1274;32614;-73
2022/03/08 10:18:56;;;;;;;15.50;10.80;;;;;;;1.67;73.40;97204.05;107470;1274;40617;-74
2022/03/08 10:21:35;;;;;;;24.10;15.80;;;;;;;1.57;72.58;97200.95;107638;1273;35733;-74
2022/03/08 10:24:14;;;;;;;22.90;13.30;;;;;;;1.24;72.99;97200.60;107609;1273;35155;-74
2022/03/08 10:26:51;;;;;;;21.80;12.30;;;;;;;1.00;72.36;97206.78;107573;1272;53218;-73
2022/03/08 10:29:28;;;;;;;19.00;12.70;;;;;;;0.85;73.09;97204.55;107582;1274;30685;-73
2022/03/08 10:32:16;;;;;;;20.50;12.00;;;;;;;0.88;73.52;97206.48;107600;1273;41990;-73
2022/03/08 10:34:50;;;;;;;16.00;10.50;;;;;;;1.04;72.77;97203.93;107615;1274;40903;-73
2022/03/08 10:37:24;;;;;;;19.60;11.80;;;;;;;1.05;71.96;97199.23;107637;1273;41226;-73
2022/03/08 10:39:57;;;;;;;16.00;10.60;;;;;;;1.17;72.65;97197.27;107601;1273;30762;-74
2022/03/08 10:42:29;;;;;;;15.20;11.60;;;;;;;1.34;72.47;97196.11;107570;1273;45445;-73
2022/03/08 10:45:05;;;;;;;13.50;8.90;;;;;;;1.30;71.53;97198.30;107635;1273;31169;-73
2022/03/08 10:47:45;;;;;;;14.80;9.30;;;;;;;1.20;70.28;97197.31;107599;1273;113341;-74
2022/03/08 10:50:18;;;;;;;16.90;10.10;;;;;;;1.27;71.27;97202.23;107636;1274;40416;-73
2022/03/08 10:52:51;;;;;;;17.20;10.20;;;;;;;1.53;71.85;97193.33;107638;1274;41831;-74
2022/03/08 10:55:23;;;;;;;16.60;10.30;;;;;;;1.66;71.49;97194.24;107638;1274;36475;-73
2022/03/08 10:57:57;;;;;;;11.00;7.60;;;;;;;1.65;70.91;97186.40;107568;1274;42550;-74
2022/03/08 11:00:29;;;;;;;16.90;10.40;;;;;;;1.55;70.29;97182.83;107620;1273;35410;-73
2022/03/08 11:03:02;;;;;;;17.50;11.70;;;;;;;1.61;70.70;97180.75;107617;1273;37827;-74
2022/03/08 11:05:36;;;;;;;16.00;11.30;;;;;;;1.81;70.45;97180.91;107589;1273;51273;-74
2022/03/08 11:08:08;;;;;;;16.90;11.00;;;;;;;1.69;69.68;97174.41;107573;1273;30037;-74
2022/03/08 11:10:39;;;;;;;16.50;10.80;;;;;;;1.57;69.35;97168.98;107574;1273;36062;-74
2022/03/08 11:13:13;;;;;;;17.60;10.30;;;;;;;1.36;69.09;97168.38;107539;1273;43716;-73
2022/03/08 11:15:45;;;;;;;15.20;9.60;;;;;;;1.11;69.19;97168.36;107551;1273;43198;-73
2022/03/08 11:18:17;;;;;;;17.00;10.60;;;;;;;0.95;69.48;97165.83;107501;1273;40325;-73
2022/03/08 11:20:49;;;;;;;17.20;11.30;;;;;;;0.91;69.59;97164.67;107670;1273;32472;-73
2022/03/08 11:23:21;;;;;;;17.50;9.90;;;;;;;0.91;69.98;97165.99;107623;1274;41693;-73
2022/03/08 11:25:52;;;;;;;17.90;10.90;;;;;;;0.89;70.08;97159.50;107653;1272;40390;-73
2022/03/08 11:28:23;;;;;;;18.90;11.20;;;;;;;1.01;70.56;97158.91;107586;1273;39299;-74
2022/03/08 11:30:56;;;;;;;19.20;11.00;;;;;;;1.18;70.30;97152.27;107570;1272;38744;-74